createdAt,value
2023-01-11T00:00:00.000Z,7.22
2023-01-11T00:15:00.000Z,7.28
2023-01-11T00:30:00.000Z,7.05
2023-01-11T00:45:00.000Z,7.11
2023-01-11T01:00:00.000Z,7.15
2023-01-11T01:15:00.000Z,6.48
2023-01-11T01:30:00.000Z,5.65
2023-01-11T01:45:00.000Z,5.41
2023-01-11T02:00:00.000Z,6.38
2023-01-11T02:15:00.000Z,5.16
2023-01-11T02:30:00.000Z,5.54
2023-01-11T02:45:00.000Z,5.64
2023-01-11T03:00:00.000Z,5.02
2023-01-11T03:15:00.000Z,5.35
2023-01-11T03:30:00.000Z,5
2023-01-11T03:45:00.000Z,4.74
2023-01-11T04:00:00.000Z,5
2023-01-11T04:15:00.000Z,4.8
2023-01-11T04:30:00.000Z,4.66
2023-01-11T04:45:00.000Z,4.91
2023-01-11T05:00:00.000Z,4.91
2023-01-11T05:15:00.000Z,4.95
2023-01-11T05:30:00.000Z,4.99
2023-01-11T05:45:00.000Z,5.08
2023-01-11T06:00:00.000Z,5.33
2023-01-11T06:15:00.000Z,5.42
2023-01-11T06:30:00.000Z,7.98
2023-01-11T06:45:00.000Z,6.78
2023-01-11T07:00:00.000Z,5.61
2023-01-11T07:15:00.000Z,6.15
2023-01-11T07:30:00.000Z,4.98
2023-01-11T07:45:00.000Z,5.38
2023-01-11T08:00:00.000Z,5.8
2023-01-11T08:15:00.000Z,4.59
2023-01-11T08:30:00.000Z,4.59
2023-01-11T08:45:00.000Z,4.6
2023-01-11T09:00:00.000Z,4.96
2023-01-11T09:15:00.000Z,5.36
2023-01-11T09:30:00.000Z,4.71
2023-01-11T09:45:00.000Z,4.65
2023-01-11T10:00:00.000Z,6.62
2023-01-11T10:15:00.000Z,4.47
2023-01-11T10:30:00.000Z,5.15
2023-01-11T10:45:00.000Z,4.92
2023-01-11T11:00:00.000Z,4.77
2023-01-11T11:15:00.000Z,4.65
2023-01-11T11:30:00.000Z,4.86
2023-01-11T11:45:00.000Z,4.82
2023-01-11T12:00:00.000Z,4.71
2023-01-11T12:15:00.000Z,4.47
2023-01-11T12:30:00.000Z,4.7
2023-01-11T12:45:00.000Z,4.62
2023-01-11T13:00:00.000Z,5.12
2023-01-11T13:15:00.000Z,4.68
2023-01-11T13:30:00.000Z,4.44
2023-01-11T13:45:00.000Z,5
2023-01-11T14:00:00.000Z,5.26
2023-01-11T14:15:00.000Z,5.14
2023-01-11T14:30:00.000Z,5.29
2023-01-11T14:45:00.000Z,5.36
2023-01-11T15:00:00.000Z,5.68
2023-01-11T15:15:00.000Z,6.27
2023-01-11T15:30:00.000Z,6.47
2023-01-11T15:45:00.000Z,5.87
2023-01-11T16:00:00.000Z,6.53
2023-01-11T16:15:00.000Z,7
2023-01-11T16:30:00.000Z,8.02
2023-01-11T16:45:00.000Z,10.34
2023-01-11T17:00:00.000Z,10.27
2023-01-11T17:15:00.000Z,9.41
2023-01-11T17:30:00.000Z,10.98
2023-01-11T17:45:00.000Z,10.34
2023-01-11T18:00:00.000Z,10.4
2023-01-11T18:15:00.000Z,11.79
2023-01-11T18:30:00.000Z,10.95
2023-01-11T18:45:00.000Z,10.28
2023-01-11T19:00:00.000Z,11.06
2023-01-11T19:15:00.000Z,10.42
2023-01-11T19:30:00.000Z,10.38
2023-01-11T19:45:00.000Z,11.81
2023-01-11T20:00:00.000Z,17.76
2023-01-11T20:15:00.000Z,14.09
2023-01-11T20:30:00.000Z,13.27
2023-01-11T20:45:00.000Z,10.93
2023-01-11T21:00:00.000Z,12.22
2023-01-11T21:15:00.000Z,16.47
2023-01-11T21:30:00.000Z,15.6
2023-01-11T21:45:00.000Z,25.84
2023-01-11T22:00:00.000Z,8.47
2023-01-11T22:15:00.000Z,7.54
2023-01-11T22:30:00.000Z,9.99
2023-01-11T22:45:00.000Z,9.99
2023-01-11T23:00:00.000Z,7.74
2023-01-11T23:15:00.000Z,7.51
2023-01-11T23:30:00.000Z,7.53
2023-01-11T23:45:00.000Z,8.19
